Current Conditions
Clear
Conditions



Pressure
1038.91 (hPa) - 30.68 (inHG)
Visibility

2.6 (km) - 1.6 (miles)
Temperature
-12  °C
Temperature
-13  °C
Dewpoint
92  %
 Humidity
Wind Speed
0.4  m/s
1  mph
2  km/h
1  kts
Wind Direction
N
45°
E
90°
135°
S
180°
225°
W
270°
315°
 170°

Due South
Airport Data
ESMX
Växjö Kronoberg Airport
Metar :ESMX 041850Z AUTO 17001KT 2600 NCD M12/M13 Q1039
Sat 4th February 19:50 pm
Raw Metar Info
Raw METAR is the most common format in the world for the transmission of observational weather data. It is highly standardized through the International Civil Aviation Organization (ICAO), which allows it to be understood throughout most of the world.
API Info
Data Provided by
https://www.checkwx.com/weather/ESMX

Aviation Weather providing METAR, TAF, AIRMET, SIGMET and OUTLOOK Weather Reports
© Info
CSS/SVG/PHP scripts were developed by weather34 for use in the weather34 template © 2015-2023

Guide Info provided by Metar-Wikipedia